createdAt,value
2017-01-11T00:01:00.401Z,46.53
2017-01-11T00:02:09.316Z,45.87
2017-01-11T00:03:18.271Z,45.67
2017-01-11T00:04:27.200Z,45.6
2017-01-11T00:05:36.127Z,45.6
2017-01-11T00:06:45.050Z,45.96
2017-01-11T00:07:53.979Z,46.53
2017-01-11T00:09:02.890Z,46.44
2017-01-11T00:10:11.832Z,45.67
2017-01-11T00:11:20.749Z,45.77
2017-01-11T00:12:29.690Z,45.87
2017-01-11T00:13:38.622Z,46.44
2017-01-11T00:14:47.551Z,46.63
2017-01-11T00:15:56.471Z,46.82
2017-01-11T00:17:05.431Z,46.7
2017-01-11T00:18:14.348Z,46.53
2017-01-11T00:19:23.288Z,45.67
2017-01-11T00:20:32.217Z,46.15
2017-01-11T00:21:41.127Z,45.87
2017-01-11T00:22:50.042Z,45.77
2017-01-11T00:23:58.975Z,45.2
2017-01-11T00:25:07.909Z,45.67
2017-01-11T00:26:16.829Z,45.94
2017-01-11T00:27:25.761Z,46.42
2017-01-11T00:28:34.671Z,46.8
2017-01-11T00:29:43.633Z,46.13
2017-01-11T00:30:52.559Z,46.03
2017-01-11T00:32:01.490Z,45.84
2017-01-11T00:33:10.411Z,46.22
2017-01-11T00:34:19.342Z,45.56
2017-01-11T00:35:28.266Z,46.7
2017-01-11T00:36:37.194Z,46.48
2017-01-11T00:37:46.123Z,46.68
2017-01-11T00:38:55.046Z,46.48
2017-01-11T00:40:03.969Z,46.22
2017-01-11T00:41:12.898Z,45.94
2017-01-11T00:42:21.843Z,46.42
2017-01-11T00:43:30.771Z,46.58
2017-01-11T00:44:39.693Z,46.97
2017-01-11T00:45:48.617Z,46.87
2017-01-11T00:46:57.547Z,46.22
2017-01-11T00:48:06.472Z,46.58
2017-01-11T00:49:15.385Z,46.68
2017-01-11T00:50:24.308Z,46.2
2017-01-11T00:51:33.230Z,46.2
2017-01-11T00:52:42.165Z,46.68
2017-01-11T00:53:51.077Z,46.87
2017-01-11T00:55:00.007Z,46.87
2017-01-11T00:56:08.930Z,46.77
2017-01-11T00:57:17.888Z,46.77
2017-01-11T00:58:26.818Z,47.16
2017-01-11T00:59:35.769Z,47.25
2017-01-11T01:00:44.692Z,47.34
2017-01-11T01:01:53.612Z,47.25
2017-01-11T01:03:02.543Z,46.77
2017-01-11T01:04:11.464Z,46.68
2017-01-11T01:05:20.391Z,46.87
2017-01-11T01:06:29.339Z,47.06
2017-01-11T01:07:38.258Z,46.48
2017-01-11T01:08:47.191Z,46.48
2017-01-11T01:09:56.107Z,46.39
2017-01-11T01:11:05.043Z,46.58
2017-01-11T01:12:13.972Z,46.77
2017-01-11T01:13:22.905Z,46.47
2017-01-11T01:14:31.832Z,46.39
2017-01-11T01:15:40.766Z,46.68
2017-01-11T01:16:49.694Z,46.47
2017-01-11T01:17:58.611Z,45.92
2017-01-11T01:19:07.534Z,46.68
2017-01-11T01:20:16.459Z,47.03
2017-01-11T01:21:25.386Z,47.13
2017-01-11T01:22:34.467Z,47.89
2017-01-11T01:23:43.740Z,48.18
2017-01-11T01:24:52.655Z,47.8
2017-01-11T01:26:01.594Z,47.71
2017-01-11T01:27:10.524Z,47.71
2017-01-11T01:28:19.446Z,46.94
2017-01-11T01:29:28.366Z,46.56
2017-01-11T01:30:37.299Z,46.37
2017-01-11T01:31:46.226Z,47.13
2017-01-11T01:32:55.151Z,47.03
2017-01-11T01:34:04.076Z,47.49
2017-01-11T01:35:12.998Z,47.13
2017-01-11T01:36:21.918Z,47.61
2017-01-11T01:37:30.854Z,46.84
2017-01-11T01:38:39.777Z,47.42
2017-01-11T01:39:48.704Z,47.71
2017-01-11T01:40:57.625Z,46.94
2017-01-11T01:42:06.547Z,46.84
2017-01-11T01:43:15.468Z,46.75
2017-01-11T01:44:24.397Z,46.66
2017-01-11T01:45:33.336Z,46.84
2017-01-11T01:46:42.255Z,47.23
2017-01-11T01:47:51.183Z,46.94
2017-01-11T01:49:00.106Z,46.75
2017-01-11T01:50:09.028Z,46.56
2017-01-11T01:51:17.951Z,46.66
2017-01-11T01:52:26.886Z,46.47
2017-01-11T01:53:36.751Z,46.73
2017-01-11T01:54:45.680Z,45.87
2017-01-11T01:55:54.594Z,46.06
2017-01-11T01:57:03.531Z,45.89
2017-01-11T01:58:12.465Z,46.25
2017-01-11T01:59:21.390Z,45.99
2017-01-11T02:00:30.294Z,46.08
2017-01-11T02:01:39.228Z,46.08
2017-01-11T02:02:48.149Z,46.08
2017-01-11T02:03:57.108Z,45.42
2017-01-11T02:05:06.024Z,46.34
2017-01-11T02:06:14.963Z,46.18
2017-01-11T02:07:23.872Z,46.56
2017-01-11T02:08:32.835Z,46.34
2017-01-11T02:09:41.741Z,46.73
2017-01-11T02:10:50.668Z,46.82
2017-01-11T02:11:59.593Z,46.63
2017-01-11T02:13:08.532Z,46.63
2017-01-11T02:14:17.457Z,46.44
2017-01-11T02:15:26.376Z,46.25
2017-01-11T02:16:35.306Z,46.82
2017-01-11T02:17:44.220Z,47.39
2017-01-11T02:18:53.157Z,47.2
2017-01-11T02:20:02.073Z,46.73
2017-01-11T02:21:10.998Z,46.54
2017-01-11T02:22:19.918Z,46.54
2017-01-11T02:23:28.847Z,47.87
2017-01-11T02:24:37.760Z,47.11
2017-01-11T02:25:46.675Z,46.73
2017-01-11T02:26:55.616Z,46.89
2017-01-11T02:28:04.550Z,46.44
2017-01-11T02:29:13.462Z,47.02
2017-01-11T02:30:22.413Z,46.54
2017-01-11T02:31:31.343Z,46.06
2017-01-11T02:32:40.272Z,46.25
2017-01-11T02:33:49.206Z,45.84
2017-01-11T02:34:58.124Z,46.61
2017-01-11T02:36:07.038Z,47.08
2017-01-11T02:37:15.967Z,47.02
2017-01-11T02:38:24.888Z,46.73
2017-01-11T02:39:33.818Z,46.34
2017-01-11T02:40:42.751Z,45.87
2017-01-11T02:41:51.669Z,45.78
2017-01-11T02:43:00.602Z,45.68
2017-01-11T02:44:09.560Z,46.54
2017-01-11T02:45:18.564Z,46.34
2017-01-11T02:46:27.480Z,45.78
2017-01-11T02:47:36.411Z,46.15
2017-01-11T02:48:45.364Z,45.97
2017-01-11T02:49:54.284Z,45.58
2017-01-11T02:51:03.211Z,45.1
2017-01-11T02:52:12.139Z,45.01
2017-01-11T02:53:21.063Z,45.68
2017-01-11T02:54:30.030Z,45.58
2017-01-11T02:55:38.946Z,46.61
2017-01-11T02:56:47.865Z,46.32
2017-01-11T02:57:56.788Z,45.58
2017-01-11T02:59:05.720Z,45.78
2017-01-11T03:00:14.637Z,45.75
2017-01-11T03:01:23.569Z,45.87
2017-01-11T03:02:32.488Z,45.47
2017-01-11T03:03:41.427Z,45.75
2017-01-11T03:04:50.368Z,45.47
2017-01-11T03:05:59.292Z,45.56
2017-01-11T03:07:08.217Z,46.04
2017-01-11T03:08:17.135Z,45.75
2017-01-11T03:09:26.059Z,45.56
2017-01-11T03:10:35.021Z,46.04
2017-01-11T03:11:43.944Z,46.51
2017-01-11T03:12:52.854Z,46.61
2017-01-11T03:14:01.784Z,46.42
2017-01-11T03:15:11.083Z,46.32
2017-01-11T03:16:20.023Z,46.8
2017-01-11T03:17:28.955Z,46.51
2017-01-11T03:18:37.871Z,46.32
2017-01-11T03:19:46.791Z,45.56
2017-01-11T03:20:55.707Z,45.75
2017-01-11T03:22:04.624Z,45.65
2017-01-11T03:23:13.548Z,45.94
2017-01-11T03:24:22.469Z,46.42
2017-01-11T03:25:31.385Z,45.56
2017-01-11T03:26:40.310Z,45.75
2017-01-11T03:27:49.244Z,45.28
2017-01-11T03:28:58.166Z,45.94
2017-01-11T03:30:07.084Z,45.75
2017-01-11T03:31:16.003Z,46.32
2017-01-11T03:32:24.920Z,45.65
2017-01-11T03:33:33.832Z,45.84
2017-01-11T03:34:42.753Z,45.75
2017-01-11T03:35:51.704Z,45.18
2017-01-11T03:37:00.635Z,45.56
2017-01-11T03:38:09.559Z,45.65
2017-01-11T03:39:18.484Z,45.47
2017-01-11T03:40:27.408Z,45.65
2017-01-11T03:41:36.330Z,46.3
2017-01-11T03:42:45.261Z,45.73
2017-01-11T03:43:54.180Z,46.58
2017-01-11T03:45:03.109Z,46.42
2017-01-11T03:46:12.026Z,45.94
2017-01-11T03:47:20.947Z,45.94
2017-01-11T03:48:29.876Z,46.51
2017-01-11T03:49:38.801Z,46.13
2017-01-11T03:50:47.719Z,46.2
2017-01-11T03:51:56.659Z,45.94
2017-01-11T03:53:05.583Z,46.13
2017-01-11T03:54:14.504Z,45.65
2017-01-11T03:55:23.430Z,45.56
2017-01-11T03:56:32.365Z,45.84
2017-01-11T03:57:41.274Z,46.58
2017-01-11T03:58:50.227Z,45.83
2017-01-11T03:59:59.167Z,45.92
2017-01-11T04:01:08.104Z,45.54
2017-01-11T04:02:17.029Z,45.83
2017-01-11T04:03:25.957Z,45.83
2017-01-11T04:04:34.869Z,45.44
2017-01-11T04:05:43.802Z,45.83
2017-01-11T04:06:52.735Z,45.65
2017-01-11T04:08:01.682Z,45.18
2017-01-11T04:09:10.623Z,44.8
2017-01-11T04:10:19.536Z,45.37
2017-01-11T04:11:28.467Z,45.25
2017-01-11T04:12:37.390Z,45.54
2017-01-11T04:13:46.328Z,45.54
2017-01-11T04:14:55.237Z,46.3
2017-01-11T04:16:04.158Z,46.68
2017-01-11T04:17:13.094Z,46.49
2017-01-11T04:18:22.007Z,46.3
2017-01-11T04:19:30.961Z,46.39
2017-01-11T04:20:39.892Z,46.01
2017-01-11T04:21:48.819Z,46.2
2017-01-11T04:22:57.744Z,46.01
2017-01-11T04:24:06.692Z,45.83
2017-01-11T04:25:15.612Z,46.49
2017-01-11T04:26:24.525Z,46.58
2017-01-11T04:27:33.449Z,46.78
2017-01-11T04:28:42.362Z,46.47
2017-01-11T04:29:51.294Z,46.39
2017-01-11T04:31:00.224Z,46.37
2017-01-11T04:32:09.145Z,46.49
2017-01-11T04:33:18.064Z,46.3
2017-01-11T04:34:26.980Z,45.83
2017-01-11T04:35:35.904Z,45.63
2017-01-11T04:36:44.823Z,45.92
2017-01-11T04:37:53.743Z,46.49
2017-01-11T04:39:02.661Z,46.2
2017-01-11T04:40:11.578Z,46.01
2017-01-11T04:41:20.502Z,46.58
2017-01-11T04:42:29.454Z,45.73
2017-01-11T04:43:38.408Z,46.01
2017-01-11T04:44:47.328Z,45.54
2017-01-11T04:45:56.265Z,45.89
2017-01-11T04:47:05.184Z,46.68
2017-01-11T04:48:14.101Z,46.2
2017-01-11T04:49:23.032Z,45.8
2017-01-11T04:50:31.950Z,45.63
2017-01-11T04:51:40.875Z,45.73
2017-01-11T04:52:49.794Z,45.73
2017-01-11T04:53:58.752Z,45.92
2017-01-11T04:55:07.664Z,45.44
2017-01-11T04:56:16.590Z,45.92
2017-01-11T04:57:25.542Z,45.73
2017-01-11T04:58:34.487Z,45.83
2017-01-11T04:59:43.414Z,45.61
2017-01-11T05:00:52.336Z,45.32
2017-01-11T05:02:01.259Z,45.92
2017-01-11T05:03:10.168Z,45.35
2017-01-11T05:04:19.094Z,45.99
2017-01-11T05:05:28.013Z,45.54
2017-01-11T05:06:36.963Z,45.83
2017-01-11T05:07:45.892Z,45.63
2017-01-11T05:08:54.804Z,45.8
2017-01-11T05:10:03.732Z,45.83
2017-01-11T05:11:12.681Z,46.3
2017-01-11T05:12:21.646Z,46.3
2017-01-11T05:13:30.574Z,46.01
2017-01-11T05:14:39.507Z,46.18
2017-01-11T05:15:48.414Z,46.56
2017-01-11T05:16:57.332Z,46.66
2017-01-11T05:18:06.267Z,45.73
2017-01-11T05:19:15.187Z,46.39
2017-01-11T05:20:24.111Z,46.3
2017-01-11T05:21:33.031Z,46.37
2017-01-11T05:22:41.956Z,46.37
2017-01-11T05:23:50.918Z,46.37
2017-01-11T05:24:59.834Z,46.37
2017-01-11T05:26:08.750Z,46.2
2017-01-11T05:27:17.662Z,46.18
2017-01-11T05:28:26.597Z,46.01
2017-01-11T05:29:35.512Z,45.51
2017-01-11T05:30:44.440Z,46.09
2017-01-11T05:31:53.370Z,46.01
2017-01-11T05:33:02.284Z,46.09
2017-01-11T05:34:11.224Z,46.28
2017-01-11T05:35:20.144Z,46.01
2017-01-11T05:36:29.081Z,46.09
2017-01-11T05:37:37.993Z,46.3
2017-01-11T05:38:46.915Z,46.68
2017-01-11T05:39:55.842Z,46.49
2017-01-11T05:41:04.753Z,46.01
2017-01-11T05:42:13.699Z,45.61
2017-01-11T05:43:22.622Z,45.8
2017-01-11T05:44:31.534Z,45.7
2017-01-11T05:45:40.446Z,46.47
2017-01-11T05:46:49.377Z,45.99
2017-01-11T05:47:58.289Z,46.37
2017-01-11T05:49:07.220Z,46.56
2017-01-11T05:50:16.129Z,46.28
2017-01-11T05:51:25.065Z,46.09
2017-01-11T05:52:33.994Z,46.28
2017-01-11T05:53:42.931Z,45.83
2017-01-11T05:54:51.849Z,46.47
2017-01-11T05:56:00.760Z,46.47
2017-01-11T05:57:09.688Z,46.66
2017-01-11T05:58:18.603Z,46.56
2017-01-11T05:59:27.530Z,46.18
2017-01-11T06:00:36.461Z,46.18
2017-01-11T06:01:45.388Z,46.66
2017-01-11T06:02:54.343Z,46.66
2017-01-11T06:04:03.266Z,45.99
2017-01-11T06:05:12.182Z,46.84
2017-01-11T06:06:21.115Z,49.73
2017-01-11T06:07:30.043Z,50.9
2017-01-11T06:08:38.978Z,52.23
2017-01-11T06:09:47.894Z,53.41
2017-01-11T06:10:56.843Z,54.17
2017-01-11T06:12:05.770Z,55.02
2017-01-11T06:13:14.693Z,57.5
2017-01-11T06:14:23.609Z,60.02
2017-01-11T06:15:32.541Z,63.35
2017-01-11T06:16:41.452Z,63.92
2017-01-11T06:17:50.384Z,64.25
2017-01-11T06:18:59.308Z,61.1
2017-01-11T06:20:08.236Z,58.61
2017-01-11T06:21:17.171Z,58.11
2017-01-11T06:22:26.082Z,60.81
2017-01-11T06:23:35.004Z,61.38
2017-01-11T06:24:43.954Z,62.05
2017-01-11T06:25:52.872Z,62.81
2017-01-11T06:27:01.792Z,63.29
2017-01-11T06:28:10.705Z,63.29
2017-01-11T06:29:19.634Z,63.96
2017-01-11T06:30:28.546Z,64.18
2017-01-11T06:31:37.478Z,63.13
2017-01-11T06:32:46.398Z,63.99
2017-01-11T06:33:55.330Z,64.37
2017-01-11T06:35:04.256Z,64.37
2017-01-11T06:36:13.173Z,65.04
2017-01-11T06:37:22.100Z,64.85
2017-01-11T06:38:31.026Z,64.85
2017-01-11T06:39:39.954Z,65.52
2017-01-11T06:40:48.881Z,66.6
2017-01-11T06:41:57.808Z,66.31
2017-01-11T06:43:06.737Z,66.31
2017-01-11T06:44:15.667Z,67.18
2017-01-11T06:45:24.586Z,65.93
2017-01-11T06:46:33.514Z,65.55
2017-01-11T06:47:42.443Z,66.31
2017-01-11T06:48:51.374Z,66.31
2017-01-11T06:50:00.297Z,66.83
2017-01-11T06:51:09.225Z,66.92
2017-01-11T06:52:18.649Z,67.4
2017-01-11T06:53:27.591Z,68.16
2017-01-11T06:54:36.539Z,67.97
2017-01-11T06:55:45.464Z,67.3
2017-01-11T06:56:54.393Z,68.16
2017-01-11T06:58:03.332Z,68.84
2017-01-11T06:59:12.247Z,68.64
2017-01-11T07:00:21.160Z,68.64
2017-01-11T07:01:30.080Z,69.12
2017-01-11T07:02:39.005Z,68.45
2017-01-11T07:03:47.940Z,68.64
2017-01-11T07:04:56.876Z,68.64
2017-01-11T07:06:05.802Z,69.02
2017-01-11T07:07:14.719Z,69.73
2017-01-11T07:08:23.655Z,69.06
2017-01-11T07:09:32.579Z,69.15
2017-01-11T07:10:41.526Z,69.15
2017-01-11T07:11:50.458Z,69.15
2017-01-11T07:12:59.377Z,69.06
2017-01-11T07:14:08.327Z,68.96
2017-01-11T07:15:17.284Z,69.25
2017-01-11T07:16:26.217Z,70.97
2017-01-11T07:17:35.319Z,72.31
2017-01-11T07:18:44.941Z,72.41
2017-01-11T07:19:53.991Z,72.5
2017-01-11T07:21:02.919Z,71.36
2017-01-11T07:22:11.842Z,71.26
2017-01-11T07:23:21.171Z,70.3
2017-01-11T07:24:30.109Z,68.1
2017-01-11T07:25:39.038Z,67.91
2017-01-11T07:26:47.969Z,67.27
2017-01-11T07:27:56.899Z,65.55
2017-01-11T07:29:05.834Z,65.58
2017-01-11T07:30:14.754Z,64.63
2017-01-11T07:31:23.717Z,64.72
2017-01-11T07:32:33.328Z,65.81
2017-01-11T07:33:42.319Z,66.09
2017-01-11T07:34:51.234Z,65.55
2017-01-11T07:36:00.246Z,64.79
2017-01-11T07:37:09.186Z,65.01
2017-01-11T07:38:18.098Z,64.82
2017-01-11T07:39:27.034Z,64.34
2017-01-11T07:40:35.957Z,64.63
2017-01-11T07:41:45.229Z,64.66
2017-01-11T07:42:54.164Z,64.28
2017-01-11T07:44:03.106Z,64.02
2017-01-11T07:45:12.685Z,63.51
2017-01-11T07:46:21.610Z,63.45
2017-01-11T07:47:30.540Z,64.37
2017-01-11T07:48:39.463Z,63.73
2017-01-11T07:49:48.425Z,63.45
2017-01-11T07:50:57.340Z,64.4
2017-01-11T07:52:06.276Z,63.38
2017-01-11T07:53:15.211Z,63.67
2017-01-11T07:54:24.139Z,63.38
2017-01-11T07:55:33.071Z,63.57
2017-01-11T07:56:42.018Z,62.45
2017-01-11T07:57:50.954Z,63.41
2017-01-11T07:58:59.873Z,63.41
2017-01-11T08:00:08.784Z,62.84
2017-01-11T08:01:17.714Z,63.12
2017-01-11T08:02:26.651Z,63.15
2017-01-11T08:03:35.578Z,63.15
2017-01-11T08:04:44.508Z,62.77
2017-01-11T08:05:53.756Z,62.96
2017-01-11T08:07:04.125Z,62.9
2017-01-11T08:08:13.057Z,62.23
2017-01-11T08:09:21.982Z,63.18
2017-01-11T08:10:30.925Z,62.32
2017-01-11T08:11:39.861Z,62.35
2017-01-11T08:12:48.792Z,62.32
2017-01-11T08:13:57.720Z,62.51
2017-01-11T08:15:06.676Z,62.99
2017-01-11T08:16:15.606Z,62.23
2017-01-11T08:17:24.549Z,62.61
2017-01-11T08:18:33.474Z,63.09
2017-01-11T08:19:42.396Z,62.64
2017-01-11T08:20:51.320Z,62.26
2017-01-11T08:22:00.259Z,61.68
2017-01-11T08:23:09.185Z,61.97
2017-01-11T08:24:18.124Z,61.87
2017-01-11T08:25:27.052Z,61.97
2017-01-11T08:26:35.977Z,61.52
2017-01-11T08:27:44.901Z,61.8
2017-01-11T08:28:53.837Z,62.57
2017-01-11T08:30:02.775Z,61.61
2017-01-11T08:31:11.704Z,61.74
2017-01-11T08:32:20.635Z,61.93
2017-01-11T08:33:29.563Z,62.29
2017-01-11T08:34:38.523Z,62.19
2017-01-11T08:35:47.460Z,62.93
2017-01-11T08:36:56.407Z,63.12
2017-01-11T08:38:05.342Z,63.79
2017-01-11T08:39:14.266Z,64.53
2017-01-11T08:40:23.189Z,63.57
2017-01-11T08:41:32.103Z,63.86
2017-01-11T08:42:41.048Z,64.25
2017-01-11T08:43:49.969Z,64.34
2017-01-11T08:44:59.094Z,64.34
2017-01-11T08:46:08.400Z,63.95
2017-01-11T08:47:20.122Z,64.31
2017-01-11T08:48:29.050Z,64.79
2017-01-11T08:49:38.015Z,64.4
2017-01-11T08:50:46.949Z,64.12
2017-01-11T08:51:55.949Z,64.5
2017-01-11T08:53:05.310Z,64.79
2017-01-11T08:54:14.239Z,64.79
2017-01-11T08:55:25.347Z,64.5
2017-01-11T08:56:35.149Z,64.79
2017-01-11T08:57:44.105Z,64.69
2017-01-11T08:58:53.092Z,64.69
2017-01-11T09:00:02.017Z,64.79
2017-01-11T09:01:10.957Z,64.92
2017-01-11T09:02:19.879Z,64.6
2017-01-11T09:03:28.815Z,64.98
2017-01-11T09:04:37.751Z,65.46
2017-01-11T09:05:46.677Z,65.27
2017-01-11T09:06:55.611Z,65.46
2017-01-11T09:08:04.563Z,65.56
2017-01-11T09:09:13.501Z,58.95
2017-01-11T09:10:22.444Z,44.87
2017-01-11T09:11:31.372Z,41.61
2017-01-11T09:12:40.299Z,40.71
2017-01-11T09:13:49.226Z,40.19
2017-01-11T09:14:58.156Z,40.46
2017-01-11T09:16:07.082Z,43.5
2017-01-11T09:17:16.066Z,51.17
2017-01-11T09:18:25.017Z,55.94
2017-01-11T09:19:33.942Z,58.71
2017-01-11T09:20:42.891Z,59.8
2017-01-11T09:21:51.821Z,61.36
2017-01-11T09:23:00.747Z,61.68
2017-01-11T09:24:09.679Z,62.35
2017-01-11T09:25:18.611Z,62.48
2017-01-11T09:26:27.548Z,63.15
2017-01-11T09:27:36.489Z,62.8
2017-01-11T09:28:45.432Z,62.83
2017-01-11T09:29:54.354Z,63.22
2017-01-11T09:31:03.299Z,63.25
2017-01-11T09:32:12.223Z,62.48
2017-01-11T09:33:21.163Z,63.34
2017-01-11T09:34:30.123Z,64.47
2017-01-11T09:35:39.059Z,64.56
2017-01-11T09:36:48.240Z,65.05
2017-01-11T09:37:57.173Z,64.95
2017-01-11T09:39:06.099Z,65.53
2017-01-11T09:40:15.026Z,65.72
2017-01-11T09:41:23.947Z,65.53
2017-01-11T09:42:32.889Z,65.43
2017-01-11T09:43:41.826Z,65.24
2017-01-11T09:44:50.753Z,65.72
2017-01-11T09:45:59.701Z,65.72
2017-01-11T09:47:08.619Z,66.14
2017-01-11T09:48:17.564Z,65.17
2017-01-11T09:49:26.501Z,65.56
2017-01-11T09:50:35.430Z,65.2
2017-01-11T09:51:44.343Z,64.82
2017-01-11T09:52:53.280Z,65.01
2017-01-11T09:54:02.218Z,65.01
2017-01-11T09:55:11.142Z,65.4
2017-01-11T09:56:20.077Z,65.01
2017-01-11T09:57:29.001Z,65.3
2017-01-11T09:58:37.928Z,65.4
2017-01-11T09:59:46.865Z,65.3
2017-01-11T10:00:55.853Z,64.37
2017-01-11T10:02:04.884Z,64.05
2017-01-11T10:03:13.960Z,65.4
2017-01-11T10:04:22.937Z,65.4
2017-01-11T10:05:31.879Z,65.5
2017-01-11T10:06:40.829Z,65.98
2017-01-11T10:07:49.768Z,66.17
2017-01-11T10:08:58.711Z,66.17
2017-01-11T10:10:07.675Z,65.98
2017-01-11T10:11:16.605Z,66.07
2017-01-11T10:12:25.541Z,66.27
2017-01-11T10:13:34.484Z,65.98
2017-01-11T10:14:43.429Z,66.27
2017-01-11T10:15:52.391Z,66.27
2017-01-11T10:17:01.326Z,65.37
2017-01-11T10:18:10.263Z,65.56
2017-01-11T10:19:19.268Z,66.14
2017-01-11T10:20:28.262Z,65.85
2017-01-11T10:21:37.208Z,66.04
2017-01-11T10:22:46.165Z,65.85
2017-01-11T10:23:55.097Z,65.46
2017-01-11T10:25:04.031Z,65.66
2017-01-11T10:26:12.969Z,65.94
2017-01-11T10:27:21.887Z,66.14
2017-01-11T10:28:30.834Z,65.94
2017-01-11T10:29:39.756Z,65.56
2017-01-11T10:30:48.703Z,65.94
2017-01-11T10:31:57.641Z,66.27
2017-01-11T10:33:06.665Z,65.94
2017-01-11T10:34:15.586Z,66.24
2017-01-11T10:35:24.508Z,65.66
2017-01-11T10:36:33.439Z,65.17
2017-01-11T10:37:42.375Z,65.85
2017-01-11T10:38:51.319Z,65.85
2017-01-11T10:40:00.257Z,66.04
2017-01-11T10:41:09.222Z,66.04
2017-01-11T10:42:18.153Z,66.24
2017-01-11T10:43:27.085Z,65.37
2017-01-11T10:44:36.023Z,66.04
2017-01-11T10:45:44.959Z,65.85
2017-01-11T10:46:53.887Z,66.33
2017-01-11T10:48:02.814Z,66.04
2017-01-11T10:49:11.753Z,66.14
2017-01-11T10:50:20.679Z,66.04
2017-01-11T10:51:29.621Z,65.46
2017-01-11T10:52:38.851Z,66.14
2017-01-11T10:53:47.790Z,66.24
2017-01-11T10:54:56.723Z,65.66
2017-01-11T10:56:05.648Z,66.14
2017-01-11T10:57:14.610Z,65.56
2017-01-11T10:58:23.539Z,66.14
2017-01-11T10:59:32.471Z,66.14
2017-01-11T11:00:41.406Z,65.94
2017-01-11T11:01:50.384Z,66.24
2017-01-11T11:02:59.312Z,65.56
2017-01-11T11:04:08.429Z,65.56
2017-01-11T11:05:17.363Z,65.85
2017-01-11T11:06:26.283Z,66.42
2017-01-11T11:07:35.469Z,65.85
2017-01-11T11:08:44.411Z,65.46
2017-01-11T11:09:53.331Z,65.46
2017-01-11T11:11:02.260Z,65.27
2017-01-11T11:12:11.188Z,64.98
2017-01-11T11:13:20.132Z,65.37
2017-01-11T11:14:29.090Z,64.79
2017-01-11T11:15:38.019Z,64.98
2017-01-11T11:16:46.948Z,64.69
2017-01-11T11:17:55.870Z,64.79
2017-01-11T11:19:04.816Z,64.4
2017-01-11T11:20:13.745Z,64.59
2017-01-11T11:21:22.709Z,64.69
2017-01-11T11:22:31.633Z,64.69
2017-01-11T11:23:40.718Z,64.79
2017-01-11T11:24:49.656Z,65.17
2017-01-11T11:25:58.591Z,65.27
2017-01-11T11:27:07.527Z,65.17
2017-01-11T11:28:16.450Z,64.98
2017-01-11T11:29:25.385Z,65.46
2017-01-11T11:30:34.300Z,65.17
2017-01-11T11:31:43.218Z,64.98
2017-01-11T11:32:52.163Z,65.5
2017-01-11T11:34:01.102Z,65.3
2017-01-11T11:35:10.035Z,65.88
2017-01-11T11:36:18.959Z,66.36
2017-01-11T11:37:27.878Z,65.78
2017-01-11T11:38:36.811Z,65.75
2017-01-11T11:39:45.750Z,66.27
2017-01-11T11:40:54.685Z,66.04
2017-01-11T11:42:03.609Z,66.33
2017-01-11T11:43:12.549Z,65.88
2017-01-11T11:44:21.473Z,66.36
2017-01-11T11:45:30.575Z,65.88
2017-01-11T11:46:39.509Z,66.24
2017-01-11T11:47:48.440Z,65.94
2017-01-11T11:48:57.367Z,65.27
2017-01-11T11:50:06.299Z,65.46
2017-01-11T11:51:15.247Z,65.46
2017-01-11T11:52:24.184Z,65.17
2017-01-11T11:53:33.696Z,66.14
2017-01-11T11:54:44.622Z,66.24
2017-01-11T11:55:53.551Z,65.27
2017-01-11T11:57:02.491Z,65.56
2017-01-11T11:58:11.428Z,65.75
2017-01-11T11:59:20.349Z,65.56
2017-01-11T12:00:29.279Z,65.56
2017-01-11T12:01:38.214Z,65.85
2017-01-11T12:02:47.977Z,65.46
2017-01-11T18:30:18.664Z,72.05
2017-01-11T18:31:27.590Z,71.76
2017-01-11T18:32:36.890Z,71.66
2017-01-11T18:33:47.026Z,72.14
2017-01-11T18:34:55.990Z,71.85
2017-01-11T18:36:04.928Z,71.76
2017-01-11T18:37:13.860Z,71.85
2017-01-11T18:38:22.794Z,71.85
2017-01-11T18:39:31.709Z,71.81
2017-01-11T18:40:40.643Z,71.53
2017-01-11T18:41:49.606Z,71.62
2017-01-11T18:42:59.172Z,71.76
2017-01-11T18:44:08.116Z,71.43
2017-01-11T18:45:18.062Z,71.47
2017-01-11T18:46:27.652Z,71.81
2017-01-11T18:47:36.967Z,71.62
2017-01-11T18:48:45.903Z,71.72
2017-01-11T18:49:54.840Z,71.76
2017-01-11T18:51:03.792Z,72.24
2017-01-11T18:52:12.715Z,72.33
2017-01-11T18:53:21.639Z,71.66
2017-01-11T18:54:30.576Z,71.81
2017-01-11T18:55:39.501Z,72.01
2017-01-11T18:56:48.731Z,71.66
2017-01-11T18:57:57.670Z,72.11
2017-01-11T18:59:06.597Z,72.14
2017-01-11T19:00:15.529Z,72.33
2017-01-11T19:01:24.467Z,72.53
2017-01-11T19:02:33.447Z,72.33
2017-01-11T19:03:42.399Z,72.14
2017-01-11T19:04:51.337Z,72.14
2017-01-11T19:06:00.263Z,72.14
2017-01-11T19:07:09.216Z,72.43
2017-01-11T19:08:18.212Z,71.95
2017-01-11T19:09:28.187Z,71.95
2017-01-11T19:10:38.802Z,71.66
2017-01-11T19:11:48.166Z,72.05
2017-01-11T19:12:57.713Z,72.24
2017-01-11T19:14:07.208Z,72.14
2017-01-11T19:15:16.451Z,72.14
2017-01-11T19:16:25.482Z,72.14
2017-01-11T19:17:35.312Z,72.91
2017-01-11T19:18:44.729Z,73.1
2017-01-11T19:19:54.278Z,73.01
2017-01-11T19:21:04.659Z,72.63
2017-01-11T19:22:14.346Z,72.05
2017-01-11T19:23:23.329Z,72.24
2017-01-11T19:24:32.306Z,72.24
2017-01-11T19:25:41.424Z,71.95
2017-01-11T19:26:52.634Z,72.05
2017-01-11T19:28:01.695Z,71.76
2017-01-11T19:29:12.833Z,71.95
2017-01-11T19:30:21.892Z,72.05
2017-01-11T19:31:30.892Z,72.27
2017-01-11T19:32:39.852Z,71.98
2017-01-11T19:33:48.857Z,71.79
2017-01-11T19:34:57.815Z,71.89
2017-01-11T19:36:06.876Z,71.02
2017-01-11T19:37:15.845Z,72.08
2017-01-11T19:38:24.802Z,72.08
2017-01-11T19:39:33.754Z,72.08
2017-01-11T19:40:42.754Z,72.37
2017-01-11T19:41:51.716Z,71.6
2017-01-11T19:43:00.697Z,71.89
2017-01-11T19:44:09.682Z,71.98
2017-01-11T19:45:18.765Z,71.79
2017-01-11T19:46:27.719Z,71.7
2017-01-11T19:47:36.684Z,71.6
2017-01-11T19:48:45.737Z,71.6
2017-01-11T19:49:54.963Z,72.08
2017-01-11T19:51:04.133Z,71.89
2017-01-11T19:52:13.163Z,71.6
2017-01-11T19:53:22.437Z,71.6
2017-01-11T19:54:31.401Z,71.89
2017-01-11T19:55:40.499Z,71.41
2017-01-11T19:56:49.472Z,71.6
2017-01-11T19:57:58.440Z,71.7
2017-01-11T19:59:09.056Z,71.12
2017-01-11T20:00:18.034Z,71.22
2017-01-11T20:01:27.487Z,71.31
2017-01-11T20:02:36.667Z,71.02
2017-01-11T20:03:45.679Z,71.02
2017-01-11T20:04:55.069Z,70.73
2017-01-11T20:06:04.038Z,71.22
2017-01-11T20:07:13.027Z,70.64
2017-01-11T20:08:22.233Z,70.83
2017-01-11T20:09:31.794Z,70.92
2017-01-11T20:10:41.033Z,70.73
2017-01-11T20:11:50.198Z,70.83
2017-01-11T20:12:59.209Z,70.64
2017-01-11T20:14:08.182Z,70.54
2017-01-11T20:15:17.461Z,70.73
2017-01-11T20:16:26.403Z,70.73
2017-01-11T20:17:35.415Z,70.73
2017-01-11T20:18:44.425Z,71.02
2017-01-11T20:19:53.427Z,70.44
2017-01-11T20:21:02.387Z,70.64
2017-01-11T20:22:11.366Z,70.54
2017-01-11T20:23:20.321Z,70.73
2017-01-11T20:24:29.308Z,70.64
2017-01-11T20:25:38.310Z,69.96
2017-01-11T20:26:47.257Z,70.44
2017-01-11T20:27:56.192Z,69.77
2017-01-11T20:29:05.291Z,70.35
2017-01-11T20:30:14.407Z,69.8
2017-01-11T20:31:23.449Z,70.19
2017-01-11T20:32:32.639Z,70.19
2017-01-11T20:33:41.670Z,70.28
2017-01-11T20:34:50.783Z,70
2017-01-11T20:36:00.633Z,70.15
2017-01-11T20:37:09.586Z,69.96
2017-01-11T20:38:19.063Z,70
2017-01-11T20:39:28.203Z,70
2017-01-11T20:40:37.903Z,70.09
2017-01-11T20:41:47.326Z,70.09
2017-01-11T20:42:56.482Z,70.57
2017-01-11T20:44:05.411Z,70.28
2017-01-11T20:45:14.495Z,70.19
2017-01-11T20:46:23.462Z,70
2017-01-11T20:47:32.515Z,70.76
2017-01-11T20:48:42.712Z,70.67
2017-01-11T20:49:55.586Z,70.67
2017-01-11T20:51:09.857Z,70.67
2017-01-11T20:52:19.419Z,70.67
2017-01-11T20:53:29.764Z,70.57
2017-01-11T20:54:40.647Z,70.38
2017-01-11T20:55:49.879Z,70.38
2017-01-11T20:56:59.389Z,70.09
2017-01-11T20:58:08.577Z,70
2017-01-11T20:59:18.030Z,70.28
2017-01-11T21:00:27.826Z,70.09
2017-01-11T21:01:37.445Z,70.19
2017-01-11T21:02:46.553Z,70.48
2017-01-11T21:03:56.708Z,70.28
2017-01-11T21:05:06.105Z,70
2017-01-11T21:06:15.562Z,70.57
2017-01-11T21:07:24.720Z,70
2017-01-11T21:08:34.226Z,69.71
2017-01-11T21:09:44.585Z,70.19
2017-01-11T21:10:54.007Z,69.61
2017-01-11T21:12:04.014Z,70.19
2017-01-11T21:13:13.335Z,69.9
2017-01-11T21:14:23.231Z,70.13
2017-01-11T21:15:33.047Z,70.03
2017-01-11T21:16:43.200Z,69.71
2017-01-11T21:17:52.426Z,70.13
2017-01-11T21:19:02.400Z,69.61